createdAt,value
2022-10-22T00:01:01.180Z,14.50
2022-10-22T00:03:29.182Z,14.51
2022-10-22T00:05:57.191Z,14.53
2022-10-22T00:08:26.615Z,14.55
2022-10-22T00:10:54.591Z,14.56
2022-10-22T00:13:22.735Z,14.55
2022-10-22T00:15:50.743Z,14.55
2022-10-22T00:18:18.709Z,14.57
2022-10-22T00:20:46.705Z,14.56
2022-10-22T00:23:14.914Z,14.56
2022-10-22T00:25:44.264Z,14.58
2022-10-22T00:28:12.584Z,14.59
2022-10-22T00:30:40.587Z,14.58
2022-10-22T00:33:08.572Z,14.59
2022-10-22T00:35:37.012Z,14.60
2022-10-22T00:38:05.443Z,14.61
2022-10-22T00:40:33.444Z,14.61
2022-10-22T00:43:02.790Z,14.58
2022-10-22T00:45:31.160Z,14.54
2022-10-22T00:48:02.726Z,14.52
2022-10-22T00:50:34.448Z,14.52
2022-10-22T00:53:03.471Z,14.52
2022-10-22T00:55:33.632Z,14.51
2022-10-22T00:58:03.438Z,14.47
2022-10-22T01:00:32.038Z,14.48
2022-10-22T01:03:00.426Z,14.47
2022-10-22T01:05:30.197Z,14.44
2022-10-22T01:07:58.294Z,14.44
2022-10-22T01:10:36.083Z,14.44
2022-10-22T01:13:17.604Z,14.47
2022-10-22T01:15:53.965Z,14.45
2022-10-22T01:18:25.516Z,14.42
2022-10-22T01:21:10.698Z,14.42
2022-10-22T01:24:23.031Z,14.44
2022-10-22T01:27:08.887Z,14.47
2022-10-22T01:29:41.865Z,14.49
2022-10-22T01:32:12.586Z,14.49
2022-10-22T01:34:42.654Z,14.51
2022-10-22T01:37:11.948Z,14.49
2022-10-22T01:39:41.371Z,14.50
2022-10-22T01:42:09.384Z,14.51
2022-10-22T01:44:38.730Z,14.52
2022-10-22T01:47:16.385Z,14.54
2022-10-22T01:50:01.562Z,14.55
2022-10-22T01:52:37.542Z,14.56
2022-10-22T01:55:15.910Z,14.56
2022-10-22T01:57:45.355Z,14.54
2022-10-22T02:00:15.935Z,14.54
2022-10-22T02:05:25.113Z,14.53
2022-10-22T02:07:56.997Z,14.54
2022-10-22T02:10:25.864Z,14.55
2022-10-22T02:12:56.443Z,14.56
2022-10-22T02:15:27.890Z,14.57
2022-10-22T02:17:57.300Z,14.58
2022-10-22T02:20:28.899Z,14.59
2022-10-22T02:22:57.894Z,14.59
2022-10-22T02:25:30.067Z,14.60
2022-10-22T02:28:03.142Z,14.61
2022-10-22T02:30:33.975Z,14.60
2022-10-22T02:33:09.822Z,14.61
2022-10-22T02:35:39.419Z,14.61
2022-10-22T02:38:07.550Z,14.58
2022-10-22T02:40:35.813Z,14.58
2022-10-22T02:43:05.763Z,14.59
2022-10-22T02:45:35.526Z,14.60
2022-10-22T02:48:04.003Z,14.61
2022-10-22T02:50:32.039Z,14.63
2022-10-22T02:53:00.037Z,14.63
2022-10-22T02:55:28.078Z,14.64
2022-10-22T02:57:56.063Z,14.65
2022-10-22T03:00:24.041Z,14.65
2022-10-22T03:02:53.374Z,14.64
2022-10-22T03:05:21.381Z,14.64
2022-10-22T03:07:49.379Z,14.63
2022-10-22T03:10:17.372Z,14.63
2022-10-22T03:12:45.358Z,14.63
2022-10-22T03:15:13.383Z,14.62
2022-10-22T03:17:41.768Z,14.60
2022-10-22T03:20:11.668Z,14.55
2022-10-22T03:22:42.056Z,14.52
2022-10-22T03:25:13.001Z,14.49
2022-10-22T03:27:42.238Z,14.43
2022-10-22T03:30:11.529Z,14.39
2022-10-22T03:32:39.503Z,14.34
2022-10-22T03:35:08.047Z,14.30
2022-10-22T03:37:38.149Z,14.22
2022-10-22T03:40:08.369Z,14.16
2022-10-22T03:42:36.453Z,14.09
2022-10-22T03:45:05.123Z,14.04
2022-10-22T03:47:33.132Z,13.98
2022-10-22T03:50:01.394Z,13.93
2022-10-22T03:52:29.452Z,13.86
2022-10-22T03:54:59.356Z,13.82
2022-10-22T03:57:27.426Z,13.78
2022-10-22T03:59:55.400Z,13.73
2022-10-22T04:02:23.441Z,13.68
2022-10-22T04:04:51.398Z,13.64
2022-10-22T04:07:19.385Z,13.62
2022-10-22T04:09:47.374Z,13.61
2022-10-22T04:12:16.781Z,13.62
2022-10-22T04:14:44.790Z,13.63
2022-10-22T04:17:12.755Z,13.66
2022-10-22T04:19:40.840Z,13.69
2022-10-22T04:22:08.821Z,13.73
2022-10-22T04:24:36.980Z,13.78
2022-10-22T04:27:05.126Z,13.81
2022-10-22T04:29:34.488Z,13.86
2022-10-22T04:32:02.513Z,13.90
2022-10-22T04:34:31.362Z,13.93
2022-10-22T04:36:59.374Z,13.97
2022-10-22T04:39:27.468Z,14.00
2022-10-22T04:41:55.494Z,14.03
2022-10-22T04:44:23.532Z,14.04
2022-10-22T04:46:53.123Z,14.07
2022-10-22T04:49:21.292Z,14.05
2022-10-22T04:51:49.243Z,14.07
2022-10-22T04:54:17.388Z,14.06
2022-10-22T04:56:45.380Z,14.05
2022-10-22T04:59:14.012Z,14.03
2022-10-22T05:01:43.532Z,14.03
2022-10-22T05:04:15.403Z,14.02
2022-10-22T05:06:43.976Z,14.01
2022-10-22T05:09:14.014Z,14.02
2022-10-22T05:11:48.273Z,14.01
2022-10-22T05:14:17.749Z,13.99
2022-10-22T05:16:48.236Z,13.98
2022-10-22T05:19:20.520Z,13.98
2022-10-22T05:21:48.484Z,13.97
2022-10-22T05:24:16.516Z,13.97
2022-10-22T05:26:44.526Z,13.95
2022-10-22T05:29:12.545Z,13.93
2022-10-22T05:31:41.081Z,13.92
2022-10-22T05:34:09.058Z,13.92
2022-10-22T05:36:38.577Z,13.89
2022-10-22T05:39:06.946Z,13.88
2022-10-22T05:41:36.678Z,13.87
2022-10-22T05:44:05.532Z,13.87
2022-10-22T05:46:37.044Z,13.87
2022-10-22T05:49:06.763Z,13.87
2022-10-22T05:51:37.135Z,13.89
2022-10-22T05:54:08.644Z,13.90
2022-10-22T05:56:37.602Z,13.90
2022-10-22T05:59:05.634Z,13.90
2022-10-22T06:01:35.912Z,13.91
2022-10-22T06:04:05.191Z,13.91
2022-10-22T06:06:35.309Z,13.91
2022-10-22T06:09:07.977Z,13.91
2022-10-22T06:11:35.990Z,13.91
2022-10-22T06:14:04.061Z,13.90
2022-10-22T06:16:32.632Z,13.91
2022-10-22T06:19:02.016Z,13.93
2022-10-22T06:21:30.734Z,13.92
2022-10-22T06:23:59.550Z,13.92
2022-10-22T06:26:29.640Z,13.93
2022-10-22T06:28:58.251Z,13.92
2022-10-22T06:31:27.222Z,13.92
2022-10-22T06:33:55.525Z,13.92
2022-10-22T06:36:24.894Z,13.92
2022-10-22T06:38:53.573Z,13.92
2022-10-22T06:41:24.371Z,13.90
2022-10-22T06:43:57.591Z,13.88
2022-10-22T06:46:26.720Z,13.89
2022-10-22T06:48:56.854Z,13.90
2022-10-22T06:51:25.090Z,13.92
2022-10-22T06:53:54.104Z,13.93
2022-10-22T06:56:23.765Z,13.95
2022-10-22T06:58:52.414Z,13.97
2022-10-22T07:01:24.222Z,13.96
2022-10-22T07:03:52.562Z,13.97
2022-10-22T07:06:21.163Z,13.98
2022-10-22T07:08:49.342Z,14.00
2022-10-22T07:11:18.840Z,14.04
2022-10-22T07:13:47.580Z,14.07
2022-10-22T07:16:16.398Z,14.11
2022-10-22T07:18:46.388Z,14.14
2022-10-22T07:21:16.562Z,14.17
2022-10-22T07:23:45.100Z,14.17
2022-10-22T07:26:14.204Z,14.19
2022-10-22T07:28:42.671Z,14.22
2022-10-22T07:31:12.497Z,14.26
2022-10-22T07:33:40.928Z,14.27
2022-10-22T07:36:17.409Z,14.29
2022-10-22T07:38:45.987Z,14.31
2022-10-22T07:41:14.387Z,14.32
2022-10-22T07:43:42.670Z,14.32
2022-10-22T07:46:10.689Z,14.31
2022-10-22T07:48:39.090Z,14.30
2022-10-22T07:51:07.215Z,14.30
2022-10-22T07:53:36.659Z,14.31
2022-10-22T07:56:04.940Z,14.31
2022-10-22T07:58:32.988Z,14.31
2022-10-22T08:01:02.222Z,14.31
2022-10-22T08:03:30.584Z,14.33
2022-10-22T08:05:58.828Z,14.35
2022-10-22T08:08:29.760Z,14.37
2022-10-22T08:11:02.142Z,14.40
2022-10-22T08:13:31.174Z,14.43
2022-10-22T08:15:59.833Z,14.48
2022-10-22T08:18:28.400Z,14.50
2022-10-22T08:20:56.460Z,14.55
2022-10-22T08:23:27.519Z,14.59
2022-10-22T08:25:57.342Z,14.62
2022-10-22T08:28:28.540Z,14.65
2022-10-22T08:30:56.826Z,14.69
2022-10-22T08:33:24.883Z,14.71
2022-10-22T08:35:53.375Z,14.76
2022-10-22T08:38:21.658Z,14.78
2022-10-22T08:40:52.855Z,14.80
2022-10-22T08:43:56.687Z,14.81
2022-10-22T08:46:33.540Z,14.84
2022-10-22T08:49:04.343Z,14.84
2022-10-22T08:51:35.461Z,14.84
2022-10-22T08:54:16.360Z,14.82
2022-10-22T08:56:46.387Z,14.80
2022-10-22T08:59:21.250Z,14.77
2022-10-22T09:01:52.552Z,14.75
2022-10-22T09:04:26.218Z,14.72
2022-10-22T09:06:56.444Z,14.71
2022-10-22T09:09:27.770Z,14.70
2022-10-22T09:11:58.444Z,14.72
2022-10-22T09:14:29.898Z,14.75
2022-10-22T09:17:14.506Z,14.78
2022-10-22T09:19:50.260Z,14.81
2022-10-22T09:22:28.350Z,14.86
2022-10-22T09:24:59.785Z,14.89
2022-10-22T09:27:30.752Z,14.91
2022-10-22T09:30:01.764Z,14.93
2022-10-22T09:32:30.070Z,14.96
2022-10-22T09:34:59.505Z,14.99
2022-10-22T09:37:29.829Z,15.06
2022-10-22T09:39:59.588Z,15.11
2022-10-22T09:42:27.575Z,15.17
2022-10-22T09:44:57.869Z,15.23
2022-10-22T09:47:43.492Z,15.28
2022-10-22T09:50:28.711Z,15.35
2022-10-22T09:53:00.807Z,15.40
2022-10-22T09:55:29.312Z,15.44
2022-10-22T09:57:59.337Z,15.50
2022-10-22T10:00:28.469Z,15.53
2022-10-22T10:02:59.313Z,15.56
2022-10-22T10:05:31.156Z,15.61
2022-10-22T10:07:59.430Z,15.68
2022-10-22T10:10:35.694Z,15.76
2022-10-22T10:13:12.659Z,15.81
2022-10-22T10:15:46.412Z,15.91
2022-10-22T10:18:24.879Z,16.03
2022-10-22T10:20:57.963Z,16.13
2022-10-22T10:23:31.896Z,16.23
2022-10-22T10:26:05.769Z,16.36
2022-10-22T10:28:53.531Z,16.54
2022-10-22T10:31:29.187Z,16.76
2022-10-22T10:34:06.013Z,16.89
2022-10-22T10:36:39.322Z,16.98
2022-10-22T10:39:11.613Z,17.12
2022-10-22T10:41:50.031Z,17.23
2022-10-22T10:44:46.812Z,17.40
2022-10-22T10:47:27.038Z,17.62
2022-10-22T10:50:06.064Z,17.74
2022-10-22T10:52:38.977Z,17.82
2022-10-22T10:55:14.997Z,17.85
2022-10-22T10:57:49.691Z,17.92
2022-10-22T11:00:20.720Z,17.97
2022-10-22T11:03:24.519Z,17.96
2022-10-22T11:05:57.939Z,17.92
2022-10-22T11:08:29.631Z,17.91
2022-10-22T11:11:00.836Z,17.92
2022-10-22T11:13:31.861Z,17.99
2022-10-22T11:16:05.790Z,18.08
2022-10-22T11:18:36.803Z,18.19
2022-10-22T11:21:11.934Z,18.32
2022-10-22T11:23:45.231Z,18.43
2022-10-22T11:26:20.538Z,18.54
2022-10-22T11:28:52.281Z,18.67
2022-10-22T11:31:20.931Z,18.79
2022-10-22T11:34:00.545Z,18.90
2022-10-22T11:36:40.143Z,19.04
2022-10-22T11:39:08.234Z,19.19
2022-10-22T11:41:37.153Z,19.31
2022-10-22T11:44:12.674Z,19.43
2022-10-22T11:46:45.404Z,19.52
2022-10-22T11:49:23.385Z,19.58
2022-10-22T11:51:53.481Z,19.67
2022-10-22T11:54:42.346Z,19.73
2022-10-22T11:57:26.993Z,19.81
2022-10-22T11:59:58.854Z,19.86
2022-10-22T12:02:39.640Z,19.90
2022-10-22T12:05:44.219Z,19.94
2022-10-22T12:08:25.168Z,20.03
2022-10-22T12:11:15.595Z,20.14
2022-10-22T12:14:00.270Z,20.16
2022-10-22T12:16:37.719Z,20.08
2022-10-22T12:19:25.541Z,19.93
2022-10-22T12:21:55.627Z,19.81
2022-10-22T12:24:26.795Z,19.72
2022-10-22T12:26:54.783Z,19.62
2022-10-22T12:29:25.593Z,19.51
2022-10-22T12:31:53.948Z,19.39
2022-10-22T12:34:24.704Z,19.28
2022-10-22T12:36:54.912Z,19.13
2022-10-22T12:39:27.193Z,19.00
2022-10-22T12:41:56.044Z,18.86
2022-10-22T12:44:24.211Z,18.74
2022-10-22T12:46:55.999Z,18.63
2022-10-22T12:49:32.923Z,18.55
2022-10-22T12:52:02.619Z,18.52
2022-10-22T12:54:33.104Z,18.53
2022-10-22T12:57:01.660Z,18.53
2022-10-22T12:59:33.884Z,18.53
2022-10-22T13:02:02.698Z,18.53
2022-10-22T13:04:35.943Z,18.56
2022-10-22T13:07:22.276Z,18.57
2022-10-22T13:10:00.480Z,18.59
2022-10-22T13:12:29.523Z,18.58
2022-10-22T13:14:57.543Z,18.57
2022-10-22T13:17:40.154Z,18.54
2022-10-22T13:20:18.866Z,18.50
2022-10-22T13:23:00.186Z,18.46
2022-10-22T13:25:31.281Z,18.42
2022-10-22T13:28:01.817Z,18.37
2022-10-22T13:30:31.863Z,18.30
2022-10-22T13:33:01.161Z,18.26
2022-10-22T13:35:33.119Z,18.21
2022-10-22T13:38:01.468Z,18.20
2022-10-22T13:40:30.849Z,18.17
2022-10-22T13:42:58.863Z,18.15
2022-10-22T13:45:26.844Z,18.13
2022-10-22T13:47:55.529Z,18.12
2022-10-22T13:50:23.520Z,18.08
2022-10-22T13:52:53.782Z,18.06
2022-10-22T13:55:25.719Z,18.05
2022-10-22T13:57:56.218Z,18.02
2022-10-22T14:00:26.759Z,18.02
2022-10-22T14:02:58.396Z,18.00
2022-10-22T14:05:26.638Z,17.96
2022-10-22T14:07:54.665Z,17.94
2022-10-22T14:10:24.774Z,17.92
2022-10-22T14:12:53.906Z,17.90
2022-10-22T14:15:24.920Z,17.88
2022-10-22T14:17:55.332Z,17.87
2022-10-22T14:20:26.617Z,17.84
2022-10-22T14:22:54.938Z,17.80
2022-10-22T14:25:24.867Z,17.78
2022-10-22T14:27:53.010Z,17.75
2022-10-22T14:30:27.033Z,17.73
2022-10-22T14:32:55.118Z,17.69
2022-10-22T14:35:23.764Z,17.67
2022-10-22T14:37:52.377Z,17.62
2022-10-22T14:40:22.042Z,17.59
2022-10-22T14:42:50.273Z,17.57
2022-10-22T14:45:22.005Z,17.54
2022-10-22T14:47:52.167Z,17.53
2022-10-22T14:50:20.374Z,17.51
2022-10-22T14:52:48.408Z,17.50
2022-10-22T14:55:17.487Z,17.45
2022-10-22T14:57:45.829Z,17.40
2022-10-22T15:00:15.985Z,17.33
2022-10-22T15:02:44.459Z,17.26
2022-10-22T15:05:14.590Z,17.18
2022-10-22T15:07:43.035Z,17.10
2022-10-22T15:10:11.464Z,16.97
2022-10-22T15:12:39.457Z,16.90
2022-10-22T15:15:08.385Z,16.84
2022-10-22T15:17:36.430Z,16.81
2022-10-22T15:20:05.555Z,16.75
2022-10-22T15:22:36.098Z,16.74
2022-10-22T15:25:06.326Z,16.70
2022-10-22T15:27:34.980Z,16.69
2022-10-22T15:32:36.138Z,16.65
2022-10-22T15:35:05.776Z,16.63
2022-10-22T15:37:37.752Z,16.60
2022-10-22T15:40:08.075Z,16.58
2022-10-22T15:42:36.158Z,16.55
2022-10-22T15:45:04.281Z,16.51
2022-10-22T15:47:32.297Z,16.48
2022-10-22T15:50:00.281Z,16.44
2022-10-22T15:52:28.276Z,16.41
2022-10-22T15:54:57.723Z,16.39
2022-10-22T15:57:25.699Z,16.37
2022-10-22T15:59:53.707Z,16.33
2022-10-22T16:02:21.707Z,16.29
2022-10-22T16:04:49.681Z,16.26
2022-10-22T16:07:19.869Z,16.23
2022-10-22T16:09:50.511Z,16.19
2022-10-22T16:12:19.885Z,16.18
2022-10-22T16:14:50.572Z,16.17
2022-10-22T16:17:18.642Z,16.15
2022-10-22T16:19:46.652Z,16.14
2022-10-22T16:22:15.701Z,16.14
2022-10-22T16:24:43.741Z,16.13
2022-10-22T16:27:11.774Z,16.12
2022-10-22T16:29:41.990Z,16.10
2022-10-22T16:32:09.965Z,16.08
2022-10-22T16:34:37.949Z,16.08
2022-10-22T16:37:10.138Z,16.07
2022-10-22T16:39:38.514Z,16.06
2022-10-22T16:42:06.797Z,16.03
2022-10-22T16:44:34.813Z,16.02
2022-10-22T16:47:04.223Z,15.98
2022-10-22T16:49:32.221Z,15.95
2022-10-22T16:52:00.218Z,15.89
2022-10-22T16:54:28.348Z,15.86
2022-10-22T16:56:56.367Z,15.83
2022-10-22T16:59:24.359Z,15.81
2022-10-22T17:01:52.386Z,15.81
2022-10-22T17:04:22.452Z,15.81
2022-10-22T17:06:50.453Z,15.79
2022-10-22T17:09:18.562Z,15.81
2022-10-22T17:11:47.382Z,15.80
2022-10-22T17:14:15.385Z,15.79
2022-10-22T17:16:43.427Z,15.78
2022-10-22T17:19:15.699Z,15.78
2022-10-22T17:21:45.163Z,15.77
2022-10-22T17:24:13.231Z,15.74
2022-10-22T17:26:41.360Z,15.74
2022-10-22T17:29:09.354Z,15.72
2022-10-22T17:31:39.091Z,15.72
2022-10-22T17:34:09.591Z,15.70
2022-10-22T17:36:38.266Z,15.71
2022-10-22T17:39:09.056Z,15.70
2022-10-22T17:41:38.303Z,15.71
2022-10-22T17:44:09.019Z,15.71
2022-10-22T17:46:37.580Z,15.72
2022-10-22T17:49:07.949Z,15.67
2022-10-22T17:51:35.995Z,15.64
2022-10-22T17:54:07.364Z,15.59
2022-10-22T17:56:40.237Z,15.58
2022-10-22T17:59:09.013Z,15.57
2022-10-22T18:01:43.367Z,15.56
2022-10-22T18:04:12.523Z,15.53
2022-10-22T18:06:40.738Z,15.52
2022-10-22T18:09:11.491Z,15.49
2022-10-22T18:11:42.778Z,15.46
2022-10-22T18:14:10.923Z,15.42
2022-10-22T18:16:38.901Z,15.37
2022-10-22T18:19:06.919Z,15.32
2022-10-22T18:21:34.911Z,15.29
2022-10-22T18:24:02.914Z,15.26
2022-10-22T18:26:30.873Z,15.25
2022-10-22T18:29:00.232Z,15.23
2022-10-22T18:31:30.348Z,15.23
2022-10-22T18:33:58.853Z,15.22
2022-10-22T18:36:27.966Z,15.19
2022-10-22T18:38:57.719Z,15.18
2022-10-22T18:41:26.306Z,15.19
2022-10-22T18:43:55.279Z,15.18
2022-10-22T18:46:25.197Z,15.17
2022-10-22T18:48:53.799Z,15.16
2022-10-22T18:51:22.084Z,15.15
2022-10-22T18:54:04.502Z,15.14
2022-10-22T18:56:40.547Z,15.12
2022-10-22T18:59:14.347Z,15.12
2022-10-22T19:01:43.707Z,15.11
2022-10-22T19:04:12.723Z,15.09
2022-10-22T19:06:45.078Z,15.07
2022-10-22T19:09:14.383Z,15.07
2022-10-22T19:11:43.093Z,15.06
2022-10-22T19:14:11.257Z,15.05
2022-10-22T19:16:39.343Z,15.01
2022-10-22T19:19:08.993Z,15.00
2022-10-22T19:21:37.793Z,14.98
2022-10-22T19:24:06.293Z,14.95
2022-10-22T19:26:34.767Z,14.93
2022-10-22T19:29:03.135Z,14.91
2022-10-22T19:31:32.217Z,14.90
2022-10-22T19:34:00.911Z,14.88
2022-10-22T19:36:32.611Z,14.83
2022-10-22T19:39:01.744Z,14.81
2022-10-22T19:41:31.123Z,14.78
2022-10-22T19:44:00.331Z,14.75
2022-10-22T19:46:29.830Z,14.74
2022-10-22T19:48:57.852Z,14.73
2022-10-22T19:51:27.695Z,14.73
2022-10-22T19:54:00.160Z,14.73
2022-10-22T19:56:28.723Z,14.72
2022-10-22T19:58:56.701Z,14.72
2022-10-22T20:01:24.760Z,14.75
2022-10-22T20:03:53.351Z,14.74
2022-10-22T20:06:21.828Z,14.76
2022-10-22T20:08:52.482Z,14.75
2022-10-22T20:11:26.844Z,14.73
2022-10-22T20:13:54.971Z,14.70
2022-10-22T20:16:25.974Z,14.68
2022-10-22T20:18:54.055Z,14.65
2022-10-22T20:21:22.632Z,14.61
2022-10-22T20:23:54.102Z,14.58
2022-10-22T20:26:24.532Z,14.54
2022-10-22T20:28:53.159Z,14.51
2022-10-22T20:31:22.235Z,14.47
2022-10-22T20:33:51.407Z,14.43
2022-10-22T20:36:21.143Z,14.40
2022-10-22T20:38:49.505Z,14.35
2022-10-22T20:41:19.579Z,14.33
2022-10-22T20:43:50.399Z,14.32
2022-10-22T20:46:20.016Z,14.33
2022-10-22T20:48:48.270Z,14.35
2022-10-22T20:51:16.257Z,14.37
2022-10-22T20:53:44.254Z,14.40
2022-10-22T20:56:12.665Z,14.43
2022-10-22T20:58:46.228Z,14.46
2022-10-22T21:01:21.293Z,14.48
2022-10-22T21:03:50.177Z,14.50
2022-10-22T21:06:20.901Z,14.53
2022-10-22T21:08:49.090Z,14.54
2022-10-22T21:11:17.191Z,14.56
2022-10-22T21:13:45.316Z,14.55
2022-10-22T21:16:16.414Z,14.55
2022-10-22T21:18:44.405Z,14.55
2022-10-22T21:21:13.005Z,14.54
2022-10-22T21:23:41.328Z,14.52
2022-10-22T21:26:09.382Z,14.51
2022-10-22T21:28:38.063Z,14.48
2022-10-22T21:31:09.848Z,14.47
2022-10-22T21:33:40.367Z,14.43
2022-10-22T21:36:09.886Z,14.40
2022-10-22T21:38:38.566Z,14.36
2022-10-22T21:41:07.423Z,14.32
2022-10-22T21:43:37.276Z,14.30
2022-10-22T21:46:08.148Z,14.26
2022-10-22T21:48:36.923Z,14.20
2022-10-22T21:51:10.867Z,14.13
2022-10-22T21:53:39.103Z,14.06
2022-10-22T21:56:08.263Z,14.00
2022-10-22T21:58:36.576Z,13.93
2022-10-22T22:01:04.994Z,13.85
2022-10-22T22:03:33.056Z,13.80
2022-10-22T22:06:02.428Z,13.73
2022-10-22T22:08:32.472Z,13.66
2022-10-22T22:11:05.229Z,13.59
2022-10-22T22:13:33.658Z,13.51
2022-10-22T22:16:02.687Z,13.43
2022-10-22T22:21:15.751Z,13.31
2022-10-22T22:23:46.330Z,13.25
2022-10-22T22:26:15.647Z,13.19
2022-10-22T22:28:43.616Z,13.14
2022-10-22T22:31:16.480Z,13.08
2022-10-22T22:33:44.562Z,13.05
2022-10-22T22:36:14.098Z,13.03
2022-10-22T22:38:42.564Z,13.01
2022-10-22T22:41:10.694Z,12.96
2022-10-22T22:43:38.816Z,12.95
2022-10-22T22:46:08.530Z,12.93
2022-10-22T22:48:36.544Z,12.92
2022-10-22T22:51:05.108Z,12.91
2022-10-22T22:53:34.782Z,12.88
2022-10-22T22:56:10.040Z,12.86
2022-10-22T22:58:40.444Z,12.82
2022-10-22T23:01:16.917Z,12.79
2022-10-22T23:03:46.561Z,12.75
2022-10-22T23:06:15.469Z,12.73
2022-10-22T23:08:45.287Z,12.71
2022-10-22T23:11:14.403Z,12.70
2022-10-22T23:13:43.584Z,12.69
2022-10-22T23:16:15.295Z,12.67
2022-10-22T23:18:43.699Z,12.67
2022-10-22T23:21:14.254Z,12.65
2022-10-22T23:23:45.787Z,12.64
2022-10-22T23:26:14.616Z,12.62
2022-10-22T23:28:42.679Z,12.61
2022-10-22T23:31:13.699Z,12.59
2022-10-22T23:33:41.734Z,12.58
2022-10-22T23:36:10.277Z,12.56
2022-10-22T23:38:39.715Z,12.56
2022-10-22T23:41:09.640Z,12.54
2022-10-22T23:43:38.082Z,12.54
2022-10-22T23:46:07.717Z,12.55
2022-10-22T23:48:36.029Z,12.54
2022-10-22T23:51:07.444Z,12.55
2022-10-22T23:53:35.471Z,12.53
2022-10-22T23:56:08.880Z,12.53
2022-10-22T23:58:38.660Z,12.53
